Terminal Aerodrome Forecast
Issued by NWS

Home | Current Version | Previous Version | Text Only | Print | Product List | Glossary On
Versions: 1 2 3 4 5 6 7 8 9 10 11 12 13 14 15 16
729
FTUS41 KBTV 112333
TAFMSS
TAF
KMSS 112333Z 1200/1224 00000KT P6SM BKN150
     FM120400 07008KT 6SM BR VCSH OVC060
      TEMPO 1204/1207 3SM -SN BR OVC025
     FM120700 06011KT 2SM -SN BR OVC025
     FM121200 07013KT 1/2SM -SN FZFG OVC015
     FM121900 06011KT 1SM -SN BR OVC008
     FM122000 06010KT 2SM -SN BR OVC008=

USA.gov is the U.S. government's official web portal to all federal, state and local government web resources and services.